sensor_id;sensor_type;location;lat;lon;timestamp;pressure;altitude;pressure_sealevel;temperature;humidity
13407;BME280;6774;48.208;10.766;2022-09-27T00:00:42;94004.78;;;12.24;76.37
13407;BME280;6774;48.208;10.766;2022-09-27T00:03:11;93996.16;;;12.57;76.10
13407;BME280;6774;48.208;10.766;2022-09-27T00:05:40;94005.88;;;12.40;76.27
13407;BME280;6774;48.208;10.766;2022-09-27T00:08:08;94008.16;;;12.48;77.07
13407;BME280;6774;48.208;10.766;2022-09-27T00:10:36;93990.91;;;12.17;78.11
13407;BME280;6774;48.208;10.766;2022-09-27T00:13:03;94002.50;;;12.28;78.50
13407;BME280;6774;48.208;10.766;2022-09-27T00:15:31;94007.84;;;12.33;78.56
13407;BME280;6774;48.208;10.766;2022-09-27T00:18:00;94001.50;;;12.05;78.64
13407;BME280;6774;48.208;10.766;2022-09-27T00:20:28;94005.66;;;12.01;80.34
13407;BME280;6774;48.208;10.766;2022-09-27T00:22:56;93992.84;;;12.21;80.30
13407;BME280;6774;48.208;10.766;2022-09-27T00:25:24;94001.75;;;11.68;81.51
13407;BME280;6774;48.208;10.766;2022-09-27T00:27:52;93989.56;;;11.67;83.08
13407;BME280;6774;48.208;10.766;2022-09-27T00:30:20;94001.28;;;11.48;83.20
13407;BME280;6774;48.208;10.766;2022-09-27T00:32:48;93991.31;;;11.62;83.45
13407;BME280;6774;48.208;10.766;2022-09-27T00:35:20;93986.09;;;11.79;82.82
13407;BME280;6774;48.208;10.766;2022-09-27T00:37:47;93978.56;;;11.47;83.41
13407;BME280;6774;48.208;10.766;2022-09-27T00:40:16;93983.16;;;11.63;82.79
13407;BME280;6774;48.208;10.766;2022-09-27T00:42:45;93976.94;;;11.58;83.61
13407;BME280;6774;48.208;10.766;2022-09-27T00:45:15;93983.84;;;11.71;83.81
13407;BME280;6774;48.208;10.766;2022-09-27T00:47:49;93976.47;;;11.61;83.81
13407;BME280;6774;48.208;10.766;2022-09-27T00:50:25;93978.09;;;11.74;83.58
13407;BME280;6774;48.208;10.766;2022-09-27T00:53:03;93975.81;;;11.89;83.45
13407;BME280;6774;48.208;10.766;2022-09-27T00:55:37;93972.88;;;12.02;83.16
13407;BME280;6774;48.208;10.766;2022-09-27T00:58:08;93968.44;;;11.91;83.27
13407;BME280;6774;48.208;10.766;2022-09-27T01:00:43;93964.50;;;11.93;83.06
13407;BME280;6774;48.208;10.766;2022-09-27T01:03:17;93965.69;;;11.86;83.76
13407;BME280;6774;48.208;10.766;2022-09-27T01:05:51;93963.25;;;11.96;83.40
13407;BME280;6774;48.208;10.766;2022-09-27T01:08:19;93978.44;;;11.89;83.47
13407;BME280;6774;48.208;10.766;2022-09-27T01:10:58;93960.97;;;11.88;84.08
13407;BME280;6774;48.208;10.766;2022-09-27T01:13:36;93981.28;;;11.76;84.46
13407;BME280;6774;48.208;10.766;2022-09-27T01:16:10;93977.06;;;11.51;85.61
13407;BME280;6774;48.208;10.766;2022-09-27T01:18:48;93986.25;;;11.25;86.99
13407;BME280;6774;48.208;10.766;2022-09-27T01:21:37;93981.75;;;11.02;86.57
13407;BME280;6774;48.208;10.766;2022-09-27T01:27:58;93965.44;;;10.82;88.00
13407;BME280;6774;48.208;10.766;2022-09-27T01:30:40;93957.59;;;10.64;87.93
13407;BME280;6774;48.208;10.766;2022-09-27T01:33:17;93951.84;;;10.67;88.75
13407;BME280;6774;48.208;10.766;2022-09-27T01:36:02;93956.94;;;10.80;88.52
13407;BME280;6774;48.208;10.766;2022-09-27T01:38:39;93949.34;;;10.72;88.97
13407;BME280;6774;48.208;10.766;2022-09-27T01:41:21;93942.16;;;10.79;88.41
13407;BME280;6774;48.208;10.766;2022-09-27T01:44:20;93936.47;;;10.64;88.71
13407;BME280;6774;48.208;10.766;2022-09-27T01:47:02;93927.31;;;10.78;88.71
13407;BME280;6774;48.208;10.766;2022-09-27T01:49:44;93930.75;;;10.78;88.80
13407;BME280;6774;48.208;10.766;2022-09-27T01:52:17;93922.97;;;10.83;88.65
13407;BME280;6774;48.208;10.766;2022-09-27T01:54:50;93909.34;;;11.10;87.60
13407;BME280;6774;48.208;10.766;2022-09-27T01:57:48;93906.72;;;10.98;87.97
13407;BME280;6774;48.208;10.766;2022-09-27T02:00:22;93909.44;;;11.03;88.05
13407;BME280;6774;48.208;10.766;2022-09-27T02:02:57;93900.63;;;10.98;87.80
13407;BME280;6774;48.208;10.766;2022-09-27T02:05:30;93911.47;;;10.78;88.90
13407;BME280;6774;48.208;10.766;2022-09-27T02:08:14;93911.63;;;10.95;88.37
13407;BME280;6774;48.208;10.766;2022-09-27T02:10:45;93913.69;;;10.93;88.19
13407;BME280;6774;48.208;10.766;2022-09-27T02:13:20;93906.72;;;10.98;88.37
13407;BME280;6774;48.208;10.766;2022-09-27T02:16:00;93913.13;;;11.02;88.79
13407;BME280;6774;48.208;10.766;2022-09-27T02:18:49;93910.13;;;10.87;88.62
13407;BME280;6774;48.208;10.766;2022-09-27T02:21:19;93897.84;;;10.93;89.01
13407;BME280;6774;48.208;10.766;2022-09-27T02:23:53;93905.78;;;11.04;88.82
13407;BME280;6774;48.208;10.766;2022-09-27T02:26:29;93903.84;;;10.88;89.23
13407;BME280;6774;48.208;10.766;2022-09-27T02:29:04;93904.63;;;11.00;88.50
13407;BME280;6774;48.208;10.766;2022-09-27T02:31:42;93905.06;;;10.86;89.30
13407;BME280;6774;48.208;10.766;2022-09-27T02:34:15;93904.84;;;10.87;89.66
13407;BME280;6774;48.208;10.766;2022-09-27T02:36:45;93904.03;;;10.87;89.24
13407;BME280;6774;48.208;10.766;2022-09-27T02:39:15;93910.59;;;10.84;89.36
13407;BME280;6774;48.208;10.766;2022-09-27T02:41:44;93903.13;;;10.93;88.90
13407;BME280;6774;48.208;10.766;2022-09-27T02:44:13;93903.69;;;10.95;89.00
13407;BME280;6774;48.208;10.766;2022-09-27T02:46:56;93899.78;;;10.74;89.61
13407;BME280;6774;48.208;10.766;2022-09-27T02:49:46;93895.22;;;10.81;89.59
13407;BME280;6774;48.208;10.766;2022-09-27T02:52:41;93891.31;;;10.95;89.06
13407;BME280;6774;48.208;10.766;2022-09-27T02:55:13;93882.25;;;11.03;88.91
13407;BME280;6774;48.208;10.766;2022-09-27T02:57:57;93881.34;;;10.97;88.89
13407;BME280;6774;48.208;10.766;2022-09-27T03:01:05;93877.56;;;11.17;88.31
13407;BME280;6774;48.208;10.766;2022-09-27T03:03:47;93881.78;;;11.06;88.27
13407;BME280;6774;48.208;10.766;2022-09-27T03:06:20;93877.56;;;11.17;88.19
13407;BME280;6774;48.208;10.766;2022-09-27T03:08:49;93882.25;;;10.91;89.07
13407;BME280;6774;48.208;10.766;2022-09-27T03:11:18;93883.72;;;10.87;88.85
13407;BME280;6774;48.208;10.766;2022-09-27T03:13:45;93878.00;;;10.90;88.94
13407;BME280;6774;48.208;10.766;2022-09-27T03:16:35;93883.84;;;11.04;88.52
13407;BME280;6774;48.208;10.766;2022-09-27T03:19:16;93872.50;;;11.03;88.21
13407;BME280;6774;48.208;10.766;2022-09-27T03:22:04;93879.97;;;11.18;87.58
13407;BME280;6774;48.208;10.766;2022-09-27T03:24:32;93879.84;;;11.01;88.35
13407;BME280;6774;48.208;10.766;2022-09-27T03:27:01;93878.81;;;11.02;88.22
13407;BME280;6774;48.208;10.766;2022-09-27T03:29:28;93877.31;;;10.95;88.62
13407;BME280;6774;48.208;10.766;2022-09-27T03:32:03;93879.25;;;10.88;88.62
13407;BME280;6774;48.208;10.766;2022-09-27T03:34:51;93875.72;;;10.94;89.02
13407;BME280;6774;48.208;10.766;2022-09-27T03:37:22;93885.38;;;10.88;88.14
13407;BME280;6774;48.208;10.766;2022-09-27T03:39:50;93878.91;;;10.96;88.44
13407;BME280;6774;48.208;10.766;2022-09-27T03:42:17;93875.81;;;10.75;89.15
13407;BME280;6774;48.208;10.766;2022-09-27T03:44:49;93871.56;;;10.86;88.24
13407;BME280;6774;48.208;10.766;2022-09-27T03:47:18;93874.31;;;10.68;88.77
13407;BME280;6774;48.208;10.766;2022-09-27T03:49:46;93874.44;;;10.73;88.32
13407;BME280;6774;48.208;10.766;2022-09-27T03:52:14;93860.09;;;10.69;89.35
13407;BME280;6774;48.208;10.766;2022-09-27T03:54:43;93861.69;;;10.58;89.25
13407;BME280;6774;48.208;10.766;2022-09-27T03:57:11;93863.84;;;10.49;89.75
13407;BME280;6774;48.208;10.766;2022-09-27T03:59:39;93862.81;;;10.39;89.77
13407;BME280;6774;48.208;10.766;2022-09-27T04:02:42;93863.75;;;10.68;89.11
13407;BME280;6774;48.208;10.766;2022-09-27T04:05:20;93848.03;;;10.38;89.94
13407;BME280;6774;48.208;10.766;2022-09-27T04:07:48;93853.63;;;10.41;89.88
13407;BME280;6774;48.208;10.766;2022-09-27T04:10:20;93851.69;;;10.37;89.63
13407;BME280;6774;48.208;10.766;2022-09-27T04:12:49;93855.03;;;10.56;88.72
13407;BME280;6774;48.208;10.766;2022-09-27T04:15:20;93856.75;;;10.50;89.19
13407;BME280;6774;48.208;10.766;2022-09-27T04:17:48;93857.75;;;10.37;88.99
13407;BME280;6774;48.208;10.766;2022-09-27T04:20:33;93854.41;;;10.30;89.71
13407;BME280;6774;48.208;10.766;2022-09-27T04:23:05;93854.91;;;10.09;89.79
13407;BME280;6774;48.208;10.766;2022-09-27T04:25:37;93865.28;;;10.22;89.68
13407;BME280;6774;48.208;10.766;2022-09-27T04:28:14;93860.00;;;10.22;89.62
13407;BME280;6774;48.208;10.766;2022-09-27T04:30:42;93860.91;;;10.16;89.51
13407;BME280;6774;48.208;10.766;2022-09-27T04:33:09;93862.94;;;10.14;89.77
13407;BME280;6774;48.208;10.766;2022-09-27T04:36:02;93867.16;;;10.03;90.04
13407;BME280;6774;48.208;10.766;2022-09-27T04:39:19;93862.31;;;10.30;89.46
13407;BME280;6774;48.208;10.766;2022-09-27T04:41:49;93867.59;;;10.30;89.33
13407;BME280;6774;48.208;10.766;2022-09-27T04:44:17;93868.13;;;10.20;90.05
13407;BME280;6774;48.208;10.766;2022-09-27T04:46:48;93879.63;;;10.26;89.24
13407;BME280;6774;48.208;10.766;2022-09-27T04:49:16;93882.41;;;10.13;90.29
13407;BME280;6774;48.208;10.766;2022-09-27T04:51:44;93877.81;;;10.38;88.89
13407;BME280;6774;48.208;10.766;2022-09-27T04:54:12;93882.69;;;10.23;89.40
13407;BME280;6774;48.208;10.766;2022-09-27T04:56:50;93895.75;;;10.18;89.88
13407;BME280;6774;48.208;10.766;2022-09-27T04:59:19;93906.06;;;10.19;89.77
13407;BME280;6774;48.208;10.766;2022-09-27T05:01:47;93903.31;;;9.96;90.28
13407;BME280;6774;48.208;10.766;2022-09-27T05:04:15;93910.00;;;9.98;89.95
13407;BME280;6774;48.208;10.766;2022-09-27T05:06:47;93905.28;;;10.01;90.25
13407;BME280;6774;48.208;10.766;2022-09-27T05:09:27;93916.09;;;10.11;90.64
13407;BME280;6774;48.208;10.766;2022-09-27T05:11:57;93922.44;;;9.91;91.08
13407;BME280;6774;48.208;10.766;2022-09-27T05:14:37;93917.78;;;10.05;91.18
13407;BME280;6774;48.208;10.766;2022-09-27T05:17:14;93916.56;;;10.08;90.46
13407;BME280;6774;48.208;10.766;2022-09-27T05:20:13;93911.97;;;10.15;90.75
13407;BME280;6774;48.208;10.766;2022-09-27T05:22:57;93925.13;;;10.03;91.04
13407;BME280;6774;48.208;10.766;2022-09-27T05:25:25;93931.38;;;9.90;91.75
13407;BME280;6774;48.208;10.766;2022-09-27T05:27:55;93950.03;;;9.89;91.53
13407;BME280;6774;48.208;10.766;2022-09-27T05:30:23;93964.16;;;9.94;92.74
13407;BME280;6774;48.208;10.766;2022-09-27T05:33:02;93958.56;;;10.03;92.59
13407;BME280;6774;48.208;10.766;2022-09-27T05:35:42;93959.16;;;10.05;92.30
13407;BME280;6774;48.208;10.766;2022-09-27T05:38:13;93948.63;;;10.05;91.73
13407;BME280;6774;48.208;10.766;2022-09-27T05:40:45;93957.13;;;10.07;92.19
13407;BME280;6774;48.208;10.766;2022-09-27T05:43:15;93968.97;;;10.16;91.75
13407;BME280;6774;48.208;10.766;2022-09-27T05:45:43;93967.34;;;10.15;91.97
13407;BME280;6774;48.208;10.766;2022-09-27T05:48:13;93968.09;;;10.22;91.34
13407;BME280;6774;48.208;10.766;2022-09-27T05:50:47;93971.94;;;9.89;91.77
13407;BME280;6774;48.208;10.766;2022-09-27T05:53:15;93976.28;;;9.95;90.88
13407;BME280;6774;48.208;10.766;2022-09-27T05:55:43;93975.88;;;9.80;90.49
13407;BME280;6774;48.208;10.766;2022-09-27T05:58:12;93974.84;;;10.00;90.05
13407;BME280;6774;48.208;10.766;2022-09-27T06:00:46;93978.63;;;10.04;90.11
13407;BME280;6774;48.208;10.766;2022-09-27T06:03:32;93975.84;;;10.17;88.76
13407;BME280;6774;48.208;10.766;2022-09-27T06:06:20;93975.25;;;10.15;89.21
13407;BME280;6774;48.208;10.766;2022-09-27T06:08:53;93992.09;;;10.14;88.94
13407;BME280;6774;48.208;10.766;2022-09-27T06:11:22;93989.16;;;10.40;88.04
13407;BME280;6774;48.208;10.766;2022-09-27T06:13:53;93992.75;;;10.09;88.50
13407;BME280;6774;48.208;10.766;2022-09-27T06:16:24;94001.03;;;10.13;88.43
13407;BME280;6774;48.208;10.766;2022-09-27T06:18:52;94003.97;;;10.23;87.73
13407;BME280;6774;48.208;10.766;2022-09-27T06:21:21;94000.31;;;10.24;88.08
13407;BME280;6774;48.208;10.766;2022-09-27T06:23:53;93997.97;;;10.34;87.62
13407;BME280;6774;48.208;10.766;2022-09-27T06:26:31;94004.97;;;10.40;87.61
13407;BME280;6774;48.208;10.766;2022-09-27T06:29:26;94010.81;;;10.61;87.47
13407;BME280;6774;48.208;10.766;2022-09-27T06:32:00;93988.72;;;10.85;87.47
13407;BME280;6774;48.208;10.766;2022-09-27T06:34:39;93998.59;;;10.90;85.99
13407;BME280;6774;48.208;10.766;2022-09-27T06:37:07;94016.72;;;10.86;86.36
13407;BME280;6774;48.208;10.766;2022-09-27T06:39:35;94003.50;;;10.86;86.36
13407;BME280;6774;48.208;10.766;2022-09-27T06:42:35;93995.81;;;10.85;85.70
13407;BME280;6774;48.208;10.766;2022-09-27T06:45:20;94006.72;;;10.46;86.56
13407;BME280;6774;48.208;10.766;2022-09-27T06:48:19;94008.03;;;10.67;86.50
13407;BME280;6774;48.208;10.766;2022-09-27T06:50:56;94001.72;;;10.98;86.20
13407;BME280;6774;48.208;10.766;2022-09-27T06:53:25;94013.25;;;10.74;86.38
13407;BME280;6774;48.208;10.766;2022-09-27T06:55:56;94004.69;;;10.90;86.24
13407;BME280;6774;48.208;10.766;2022-09-27T06:58:26;93998.03;;;10.99;85.70
13407;BME280;6774;48.208;10.766;2022-09-27T07:01:29;94008.69;;;10.93;85.81
13407;BME280;6774;48.208;10.766;2022-09-27T07:04:25;94010.00;;;11.14;85.38
13407;BME280;6774;48.208;10.766;2022-09-27T07:06:56;94029.75;;;11.11;85.72
13407;BME280;6774;48.208;10.766;2022-09-27T07:09:29;94056.53;;;10.54;88.07
13407;BME280;6774;48.208;10.766;2022-09-27T07:11:57;94070.25;;;9.40;87.15
13407;BME280;6774;48.208;10.766;2022-09-27T07:14:25;94051.81;;;9.40;87.97
13407;BME280;6774;48.208;10.766;2022-09-27T07:16:54;94047.69;;;9.01;90.37
13407;BME280;6774;48.208;10.766;2022-09-27T07:19:25;94066.66;;;9.09;90.65
13407;BME280;6774;48.208;10.766;2022-09-27T07:21:53;94078.34;;;9.13;91.22
13407;BME280;6774;48.208;10.766;2022-09-27T07:24:21;94080.81;;;9.15;91.92
13407;BME280;6774;48.208;10.766;2022-09-27T07:26:49;94077.75;;;9.43;91.42
13407;BME280;6774;48.208;10.766;2022-09-27T07:29:19;94069.66;;;9.38;91.64
13407;BME280;6774;48.208;10.766;2022-09-27T07:31:51;94077.09;;;9.48;91.72
13407;BME280;6774;48.208;10.766;2022-09-27T07:34:19;94078.91;;;9.72;90.99
13407;BME280;6774;48.208;10.766;2022-09-27T07:36:48;94084.22;;;9.40;90.34
13407;BME280;6774;48.208;10.766;2022-09-27T07:39:17;94075.47;;;9.47;89.93
13407;BME280;6774;48.208;10.766;2022-09-27T07:41:47;94091.38;;;9.33;88.79
13407;BME280;6774;48.208;10.766;2022-09-27T07:44:15;94093.16;;;9.39;88.39
13407;BME280;6774;48.208;10.766;2022-09-27T07:47:15;94097.03;;;9.62;88.75
13407;BME280;6774;48.208;10.766;2022-09-27T07:50:02;94099.09;;;9.78;88.09
13407;BME280;6774;48.208;10.766;2022-09-27T07:52:48;94099.56;;;9.93;86.64
13407;BME280;6774;48.208;10.766;2022-09-27T07:55:34;94112.03;;;9.61;87.70
13407;BME280;6774;48.208;10.766;2022-09-27T07:58:20;94099.13;;;9.53;88.90
13407;BME280;6774;48.208;10.766;2022-09-27T08:00:50;94115.88;;;9.59;89.66
13407;BME280;6774;48.208;10.766;2022-09-27T08:03:20;94106.03;;;9.48;89.63
13407;BME280;6774;48.208;10.766;2022-09-27T08:05:47;94126.31;;;9.72;90.17
13407;BME280;6774;48.208;10.766;2022-09-27T08:08:17;94121.41;;;9.51;90.26
13407;BME280;6774;48.208;10.766;2022-09-27T08:10:47;94127.16;;;9.66;91.15
13407;BME280;6774;48.208;10.766;2022-09-27T08:13:16;94142.34;;;9.71;91.46
13407;BME280;6774;48.208;10.766;2022-09-27T08:15:46;94139.78;;;9.57;90.19
13407;BME280;6774;48.208;10.766;2022-09-27T08:18:17;94131.41;;;9.67;89.24
13407;BME280;6774;48.208;10.766;2022-09-27T08:20:58;94142.53;;;9.94;89.89
13407;BME280;6774;48.208;10.766;2022-09-27T08:23:38;94143.31;;;9.94;88.86
13407;BME280;6774;48.208;10.766;2022-09-27T08:26:30;94140.66;;;9.76;88.88
13407;BME280;6774;48.208;10.766;2022-09-27T08:29:11;94138.25;;;10.18;88.69
13407;BME280;6774;48.208;10.766;2022-09-27T08:31:49;94141.66;;;10.62;87.19
13407;BME280;6774;48.208;10.766;2022-09-27T08:34:17;94153.22;;;10.79;86.11
13407;BME280;6774;48.208;10.766;2022-09-27T08:36:45;94137.25;;;11.04;84.35
13407;BME280;6774;48.208;10.766;2022-09-27T08:39:14;94141.41;;;10.81;82.71
13407;BME280;6774;48.208;10.766;2022-09-27T08:41:52;94145.47;;;10.47;82.85
13407;BME280;6774;48.208;10.766;2022-09-27T08:44:27;94144.00;;;10.70;83.28
13407;BME280;6774;48.208;10.766;2022-09-27T08:47:13;94150.38;;;10.80;82.98
13407;BME280;6774;48.208;10.766;2022-09-27T08:49:47;94154.06;;;10.91;82.52
13407;BME280;6774;48.208;10.766;2022-09-27T08:52:19;94155.53;;;10.87;81.68
13407;BME280;6774;48.208;10.766;2022-09-27T08:54:50;94146.38;;;10.90;83.60
13407;BME280;6774;48.208;10.766;2022-09-27T08:57:20;94146.88;;;10.98;82.69
13407;BME280;6774;48.208;10.766;2022-09-27T08:59:56;94147.03;;;11.45;82.27
13407;BME280;6774;48.208;10.766;2022-09-27T09:02:27;94164.81;;;11.38;80.18
13407;BME280;6774;48.208;10.766;2022-09-27T09:05:00;94153.94;;;10.68;80.78
13407;BME280;6774;48.208;10.766;2022-09-27T09:07:44;94151.25;;;10.74;80.92
13407;BME280;6774;48.208;10.766;2022-09-27T09:10:26;94161.00;;;10.56;81.28
13407;BME280;6774;48.208;10.766;2022-09-27T09:13:24;94159.53;;;10.60;81.44
13407;BME280;6774;48.208;10.766;2022-09-27T09:16:11;94166.69;;;10.89;81.07
13407;BME280;6774;48.208;10.766;2022-09-27T09:18:58;94178.63;;;11.52;80.39
13407;BME280;6774;48.208;10.766;2022-09-27T09:22:02;94182.13;;;11.76;80.93
13407;BME280;6774;48.208;10.766;2022-09-27T09:24:42;94167.19;;;11.69;79.28
13407;BME280;6774;48.208;10.766;2022-09-27T09:27:16;94171.75;;;11.92;77.92
13407;BME280;6774;48.208;10.766;2022-09-27T09:30:02;94171.88;;;12.09;77.91
13407;BME280;6774;48.208;10.766;2022-09-27T09:32:43;94176.56;;;11.95;76.12
13407;BME280;6774;48.208;10.766;2022-09-27T09:35:16;94169.47;;;11.54;77.59
13407;BME280;6774;48.208;10.766;2022-09-27T09:37:48;94168.41;;;11.97;78.80
13407;BME280;6774;48.208;10.766;2022-09-27T09:40:20;94177.63;;;11.64;78.35
13407;BME280;6774;48.208;10.766;2022-09-27T09:42:56;94174.41;;;11.21;78.73
13407;BME280;6774;48.208;10.766;2022-09-27T09:45:29;94191.13;;;11.15;79.04
13407;BME280;6774;48.208;10.766;2022-09-27T09:48:04;94184.13;;;10.90;78.72
13407;BME280;6774;48.208;10.766;2022-09-27T09:50:35;94174.09;;;11.29;78.60
13407;BME280;6774;48.208;10.766;2022-09-27T09:53:13;94180.00;;;11.96;76.36
13407;BME280;6774;48.208;10.766;2022-09-27T09:55:46;94192.09;;;11.92;77.44
13407;BME280;6774;48.208;10.766;2022-09-27T09:58:22;94188.41;;;12.63;78.98
13407;BME280;6774;48.208;10.766;2022-09-27T10:01:10;94184.28;;;12.44;74.82
13407;BME280;6774;48.208;10.766;2022-09-27T10:03:40;94198.97;;;11.93;75.01
13407;BME280;6774;48.208;10.766;2022-09-27T10:06:09;94196.69;;;11.55;77.15
13407;BME280;6774;48.208;10.766;2022-09-27T10:08:38;94193.91;;;11.20;77.62
13407;BME280;6774;48.208;10.766;2022-09-27T10:11:33;94206.59;;;10.81;80.39
13407;BME280;6774;48.208;10.766;2022-09-27T10:14:12;94209.22;;;10.63;81.95
13407;BME280;6774;48.208;10.766;2022-09-27T10:16:44;94212.13;;;10.91;82.98
13407;BME280;6774;48.208;10.766;2022-09-27T10:19:16;94203.94;;;10.99;82.46
13407;BME280;6774;48.208;10.766;2022-09-27T10:21:45;94192.84;;;11.09;82.18
13407;BME280;6774;48.208;10.766;2022-09-27T10:24:16;94198.88;;;11.28;82.21
13407;BME280;6774;48.208;10.766;2022-09-27T10:26:58;94199.41;;;11.48;80.44
13407;BME280;6774;48.208;10.766;2022-09-27T10:29:31;94202.28;;;11.47;81.06
13407;BME280;6774;48.208;10.766;2022-09-27T10:32:20;94202.09;;;11.90;79.26
13407;BME280;6774;48.208;10.766;2022-09-27T10:35:30;94204.63;;;11.66;80.13
13407;BME280;6774;48.208;10.766;2022-09-27T10:38:18;94189.69;;;11.90;76.98
13407;BME280;6774;48.208;10.766;2022-09-27T10:40:49;94184.53;;;12.07;76.27
13407;BME280;6774;48.208;10.766;2022-09-27T10:43:24;94183.53;;;12.84;74.65
13407;BME280;6774;48.208;10.766;2022-09-27T10:46:11;94181.19;;;13.84;73.65
13407;BME280;6774;48.208;10.766;2022-09-27T10:48:41;94182.97;;;13.95;71.28
13407;BME280;6774;48.208;10.766;2022-09-27T10:51:26;94186.09;;;13.92;67.02
13407;BME280;6774;48.208;10.766;2022-09-27T10:53:57;94178.03;;;13.54;68.18
13407;BME280;6774;48.208;10.766;2022-09-27T10:56:32;94174.56;;;12.85;68.48
13407;BME280;6774;48.208;10.766;2022-09-27T10:59:01;94179.69;;;12.04;70.22
13407;BME280;6774;48.208;10.766;2022-09-27T11:01:42;94191.84;;;11.82;73.01
13407;BME280;6774;48.208;10.766;2022-09-27T11:04:29;94183.78;;;11.47;76.32
13407;BME280;6774;48.208;10.766;2022-09-27T11:07:13;94196.22;;;10.98;77.72
13407;BME280;6774;48.208;10.766;2022-09-27T11:09:47;94209.94;;;11.06;81.43
13407;BME280;6774;48.208;10.766;2022-09-27T11:12:16;94217.13;;;10.81;82.01
13407;BME280;6774;48.208;10.766;2022-09-27T11:14:54;94231.72;;;9.97;84.89
13407;BME280;6774;48.208;10.766;2022-09-27T11:17:33;94227.97;;;9.80;86.44
13407;BME280;6774;48.208;10.766;2022-09-27T11:20:21;94226.56;;;9.77;84.84
13407;BME280;6774;48.208;10.766;2022-09-27T11:23:22;94237.34;;;9.69;86.47
13407;BME280;6774;48.208;10.766;2022-09-27T11:26:14;94218.91;;;10.01;86.11
13407;BME280;6774;48.208;10.766;2022-09-27T11:28:51;94207.91;;;10.04;85.45
13407;BME280;6774;48.208;10.766;2022-09-27T11:31:49;94224.34;;;10.49;85.96
13407;BME280;6774;48.208;10.766;2022-09-27T11:34:35;94208.84;;;10.59;85.38
13407;BME280;6774;48.208;10.766;2022-09-27T11:37:15;94209.47;;;11.09;82.81
13407;BME280;6774;48.208;10.766;2022-09-27T11:39:59;94203.91;;;11.18;83.64
13407;BME280;6774;48.208;10.766;2022-09-27T11:42:51;94196.84;;;11.11;84.33
13407;BME280;6774;48.208;10.766;2022-09-27T11:45:31;94186.75;;;11.08;83.12
13407;BME280;6774;48.208;10.766;2022-09-27T11:48:33;94185.06;;;11.44;81.33
13407;BME280;6774;48.208;10.766;2022-09-27T11:51:12;94180.59;;;11.56;82.46
13407;BME280;6774;48.208;10.766;2022-09-27T11:53:54;94185.44;;;11.89;81.99
13407;BME280;6774;48.208;10.766;2022-09-27T11:56:37;94178.47;;;11.77;81.28
13407;BME280;6774;48.208;10.766;2022-09-27T11:59:27;94169.03;;;11.69;82.58
13407;BME280;6774;48.208;10.766;2022-09-27T12:02:10;94172.44;;;12.00;82.37
13407;BME280;6774;48.208;10.766;2022-09-27T12:05:03;94170.72;;;12.05;82.17
13407;BME280;6774;48.208;10.766;2022-09-27T12:07:41;94162.41;;;12.60;81.17
13407;BME280;6774;48.208;10.766;2022-09-27T12:10:15;94157.94;;;12.37;77.71
13407;BME280;6774;48.208;10.766;2022-09-27T12:12:45;94156.56;;;12.11;77.09
13407;BME280;6774;48.208;10.766;2022-09-27T12:15:19;94167.28;;;12.16;77.31
13407;BME280;6774;48.208;10.766;2022-09-27T12:17:51;94160.94;;;12.29;76.72
13407;BME280;6774;48.208;10.766;2022-09-27T12:20:24;94153.06;;;12.69;75.23
13407;BME280;6774;48.208;10.766;2022-09-27T12:23:00;94162.19;;;12.50;74.45
13407;BME280;6774;48.208;10.766;2022-09-27T12:25:55;94164.03;;;12.38;72.82
13407;BME280;6774;48.208;10.766;2022-09-27T12:28:34;94148.88;;;11.98;74.19
13407;BME280;6774;48.208;10.766;2022-09-27T12:31:09;94150.72;;;12.09;73.73
13407;BME280;6774;48.208;10.766;2022-09-27T12:34:09;94152.09;;;12.23;74.50
13407;BME280;6774;48.208;10.766;2022-09-27T12:36:48;94147.25;;;12.44;73.35
13407;BME280;6774;48.208;10.766;2022-09-27T12:39:21;94144.22;;;12.52;74.47
13407;BME280;6774;48.208;10.766;2022-09-27T12:42:06;94140.84;;;12.80;72.23
13407;BME280;6774;48.208;10.766;2022-09-27T12:44:43;94137.44;;;13.36;73.97
13407;BME280;6774;48.208;10.766;2022-09-27T12:47:31;94139.94;;;13.60;72.39
13407;BME280;6774;48.208;10.766;2022-09-27T12:50:09;94135.44;;;13.44;69.72
13407;BME280;6774;48.208;10.766;2022-09-27T12:52:43;94126.63;;;12.98;71.91
13407;BME280;6774;48.208;10.766;2022-09-27T12:55:34;94133.09;;;13.30;71.26
13407;BME280;6774;48.208;10.766;2022-09-27T12:58:29;94120.53;;;13.54;70.18
13407;BME280;6774;48.208;10.766;2022-09-27T13:01:06;94116.97;;;13.49;71.75
13407;BME280;6774;48.208;10.766;2022-09-27T13:03:58;94123.06;;;13.32;69.16
13407;BME280;6774;48.208;10.766;2022-09-27T13:06:42;94118.72;;;13.43;73.21
13407;BME280;6774;48.208;10.766;2022-09-27T13:09:45;94107.47;;;13.19;72.05
13407;BME280;6774;48.208;10.766;2022-09-27T13:12:19;94125.53;;;13.22;70.62
13407;BME280;6774;48.208;10.766;2022-09-27T13:14:57;94122.38;;;13.25;69.17
13407;BME280;6774;48.208;10.766;2022-09-27T13:17:51;94122.25;;;12.63;72.35
13407;BME280;6774;48.208;10.766;2022-09-27T13:20:50;94114.13;;;12.30;71.62
13407;BME280;6774;48.208;10.766;2022-09-27T13:23:52;94109.59;;;12.65;72.29
13407;BME280;6774;48.208;10.766;2022-09-27T13:26:45;94112.69;;;13.02;71.79
13407;BME280;6774;48.208;10.766;2022-09-27T13:29:25;94113.25;;;13.33;72.57
13407;BME280;6774;48.208;10.766;2022-09-27T13:32:02;94106.97;;;12.42;70.07
13407;BME280;6774;48.208;10.766;2022-09-27T13:35:10;94110.34;;;12.77;70.91
13407;BME280;6774;48.208;10.766;2022-09-27T13:37:56;94113.19;;;12.47;72.35
13407;BME280;6774;48.208;10.766;2022-09-27T13:40:33;94119.59;;;13.03;72.63
13407;BME280;6774;48.208;10.766;2022-09-27T13:43:50;94101.84;;;12.75;71.50
13407;BME280;6774;48.208;10.766;2022-09-27T13:46:34;94102.31;;;12.72;71.48
13407;BME280;6774;48.208;10.766;2022-09-27T13:49:04;94119.16;;;12.55;72.26
13407;BME280;6774;48.208;10.766;2022-09-27T13:52:02;94124.84;;;12.35;73.79
13407;BME280;6774;48.208;10.766;2022-09-27T13:54:49;94120.41;;;12.52;73.36
13407;BME280;6774;48.208;10.766;2022-09-27T13:57:40;94123.66;;;12.54;73.04
13407;BME280;6774;48.208;10.766;2022-09-27T14:00:13;94116.59;;;12.60;71.96